Terminal Aerodrome Forecast
Issued by NWS Cleveland, OH

Home | Current Version | Previous Version | Text Only | Print | Product List | Glossary Off
Versions: 1 2 3 4 5 6 7 8 9 10 11 12 13 14 15

000
FTUS41 KCLE 202326
TAFTOL
TAF
KTOL 202326Z 2100/2124 24010KT P6SM VCTS SCT025CB OVC050
     FM210130 27012G20KT P6SM FEW025 SCT050
     FM210800 27012G20KT P6SM OVC025
     FM212100 30012G20KT P6SM OVC025=

USA.gov is the U.S. government's official web portal to all federal, state and local government web resources and services.